sensor_id;sensor_type;location;lat;lon;timestamp;P1;durP1;ratioP1;P2;durP2;ratioP2
48853;SDS011;34673;52.808;17.856;2023-05-10T00:00:10;6.45;;;3.20;;
48853;SDS011;34673;52.808;17.856;2023-05-10T00:02:42;7.68;;;2.95;;
48853;SDS011;34673;52.808;17.856;2023-05-10T00:05:10;5.90;;;3.00;;
48853;SDS011;34673;52.808;17.856;2023-05-10T00:07:37;7.38;;;2.88;;
48853;SDS011;34673;52.808;17.856;2023-05-10T00:10:05;7.28;;;3.38;;
48853;SDS011;34673;52.808;17.856;2023-05-10T00:12:32;8.90;;;3.75;;
48853;SDS011;34673;52.808;17.856;2023-05-10T00:15:00;7.43;;;3.15;;
48853;SDS011;34673;52.808;17.856;2023-05-10T00:17:27;8.23;;;3.72;;
48853;SDS011;34673;52.808;17.856;2023-05-10T00:19:54;6.47;;;3.20;;
48853;SDS011;34673;52.808;17.856;2023-05-10T00:22:22;6.05;;;3.13;;
48853;SDS011;34673;52.808;17.856;2023-05-10T00:24:49;10.52;;;3.42;;
48853;SDS011;34673;52.808;17.856;2023-05-10T00:27:17;6.95;;;3.38;;
48853;SDS011;34673;52.808;17.856;2023-05-10T00:29:44;5.78;;;3.22;;
48853;SDS011;34673;52.808;17.856;2023-05-10T00:32:12;7.28;;;2.92;;
48853;SDS011;34673;52.808;17.856;2023-05-10T00:34:40;7.60;;;2.90;;
48853;SDS011;34673;52.808;17.856;2023-05-10T00:37:07;9.07;;;3.22;;
48853;SDS011;34673;52.808;17.856;2023-05-10T00:39:35;6.30;;;3.33;;
48853;SDS011;34673;52.808;17.856;2023-05-10T00:42:02;6.13;;;3.40;;
48853;SDS011;34673;52.808;17.856;2023-05-10T00:44:31;7.43;;;3.50;;
48853;SDS011;34673;52.808;17.856;2023-05-10T00:46:59;5.82;;;2.90;;
48853;SDS011;34673;52.808;17.856;2023-05-10T00:49:27;6.32;;;3.58;;
48853;SDS011;34673;52.808;17.856;2023-05-10T00:51:55;7.72;;;3.33;;
48853;SDS011;34673;52.808;17.856;2023-05-10T00:54:23;9.65;;;3.40;;
48853;SDS011;34673;52.808;17.856;2023-05-10T00:56:51;5.18;;;3.22;;
48853;SDS011;34673;52.808;17.856;2023-05-10T00:59:18;7.57;;;3.28;;
48853;SDS011;34673;52.808;17.856;2023-05-10T01:01:46;7.13;;;3.63;;
48853;SDS011;34673;52.808;17.856;2023-05-10T01:04:14;6.35;;;3.10;;
48853;SDS011;34673;52.808;17.856;2023-05-10T01:06:42;6.38;;;3.58;;
48853;SDS011;34673;52.808;17.856;2023-05-10T01:09:09;7.50;;;3.80;;
48853;SDS011;34673;52.808;17.856;2023-05-10T01:11:38;9.07;;;3.40;;
48853;SDS011;34673;52.808;17.856;2023-05-10T01:14:06;5.72;;;3.08;;
48853;SDS011;34673;52.808;17.856;2023-05-10T01:16:36;6.63;;;3.40;;
48853;SDS011;34673;52.808;17.856;2023-05-10T01:19:12;7.35;;;3.45;;
48853;SDS011;34673;52.808;17.856;2023-05-10T01:24:57;6.40;;;3.20;;
48853;SDS011;34673;52.808;17.856;2023-05-10T01:33:35;5.38;;;3.13;;
48853;SDS011;34673;52.808;17.856;2023-05-10T01:39:01;6.30;;;3.70;;
48853;SDS011;34673;52.808;17.856;2023-05-10T01:42:20;5.95;;;3.50;;
48853;SDS011;34673;52.808;17.856;2023-05-10T01:45:00;8.30;;;3.80;;
48853;SDS011;34673;52.808;17.856;2023-05-10T01:47:31;6.47;;;3.60;;
48853;SDS011;34673;52.808;17.856;2023-05-10T01:50:04;6.68;;;3.63;;
48853;SDS011;34673;52.808;17.856;2023-05-10T01:52:41;9.73;;;3.95;;
48853;SDS011;34673;52.808;17.856;2023-05-10T01:55:13;7.90;;;3.47;;
48853;SDS011;34673;52.808;17.856;2023-05-10T01:57:43;8.80;;;3.97;;
48853;SDS011;34673;52.808;17.856;2023-05-10T02:02:45;6.78;;;3.85;;
48853;SDS011;34673;52.808;17.856;2023-05-10T02:05:15;8.32;;;3.60;;
48853;SDS011;34673;52.808;17.856;2023-05-10T02:07:44;7.18;;;4.00;;
48853;SDS011;34673;52.808;17.856;2023-05-10T02:10:12;7.40;;;3.83;;
48853;SDS011;34673;52.808;17.856;2023-05-10T02:12:43;9.00;;;3.88;;
48853;SDS011;34673;52.808;17.856;2023-05-10T02:15:12;9.95;;;4.07;;
48853;SDS011;34673;52.808;17.856;2023-05-10T02:17:45;9.32;;;4.10;;
48853;SDS011;34673;52.808;17.856;2023-05-10T02:20:14;6.20;;;3.78;;
48853;SDS011;34673;52.808;17.856;2023-05-10T02:22:44;12.07;;;4.00;;
48853;SDS011;34673;52.808;17.856;2023-05-10T02:25:14;8.90;;;3.80;;
48853;SDS011;34673;52.808;17.856;2023-05-10T02:27:42;8.60;;;3.83;;
48853;SDS011;34673;52.808;17.856;2023-05-10T02:30:11;6.88;;;3.63;;
48853;SDS011;34673;52.808;17.856;2023-05-10T02:32:39;7.93;;;3.72;;
48853;SDS011;34673;52.808;17.856;2023-05-10T02:35:08;7.55;;;3.80;;
48853;SDS011;34673;52.808;17.856;2023-05-10T02:37:37;9.02;;;4.18;;
48853;SDS011;34673;52.808;17.856;2023-05-10T02:40:06;6.22;;;3.78;;
48853;SDS011;34673;52.808;17.856;2023-05-10T02:42:35;10.30;;;3.80;;
48853;SDS011;34673;52.808;17.856;2023-05-10T02:45:05;6.63;;;4.00;;
48853;SDS011;34673;52.808;17.856;2023-05-10T02:47:38;10.48;;;4.18;;
48853;SDS011;34673;52.808;17.856;2023-05-10T02:50:06;8.68;;;4.10;;
48853;SDS011;34673;52.808;17.856;2023-05-10T02:52:39;7.00;;;3.90;;
48853;SDS011;34673;52.808;17.856;2023-05-10T02:55:09;7.32;;;3.85;;
48853;SDS011;34673;52.808;17.856;2023-05-10T02:57:40;10.45;;;3.95;;
48853;SDS011;34673;52.808;17.856;2023-05-10T03:00:13;7.80;;;3.80;;
48853;SDS011;34673;52.808;17.856;2023-05-10T03:02:41;7.45;;;3.67;;
48853;SDS011;34673;52.808;17.856;2023-05-10T03:05:08;6.80;;;4.05;;
48853;SDS011;34673;52.808;17.856;2023-05-10T03:07:36;8.68;;;3.72;;
48853;SDS011;34673;52.808;17.856;2023-05-10T03:10:03;10.20;;;3.90;;
48853;SDS011;34673;52.808;17.856;2023-05-10T03:12:39;8.98;;;4.07;;
48853;SDS011;34673;52.808;17.856;2023-05-10T03:18:10;6.95;;;3.80;;
48853;SDS011;34673;52.808;17.856;2023-05-10T03:20:43;7.15;;;3.97;;
48853;SDS011;34673;52.808;17.856;2023-05-10T03:25:44;11.80;;;4.35;;
48853;SDS011;34673;52.808;17.856;2023-05-10T03:28:15;10.05;;;3.70;;
48853;SDS011;34673;52.808;17.856;2023-05-10T03:30:43;9.07;;;3.90;;
48853;SDS011;34673;52.808;17.856;2023-05-10T03:33:12;8.15;;;4.00;;
48853;SDS011;34673;52.808;17.856;2023-05-10T03:35:43;8.68;;;4.40;;
48853;SDS011;34673;52.808;17.856;2023-05-10T03:38:13;7.03;;;3.63;;
48853;SDS011;34673;52.808;17.856;2023-05-10T03:40:40;7.82;;;3.65;;
48853;SDS011;34673;52.808;17.856;2023-05-10T03:43:08;10.30;;;3.75;;
48853;SDS011;34673;52.808;17.856;2023-05-10T03:45:35;7.45;;;3.97;;
48853;SDS011;34673;52.808;17.856;2023-05-10T03:48:03;7.72;;;3.80;;
48853;SDS011;34673;52.808;17.856;2023-05-10T03:50:30;8.93;;;4.05;;
48853;SDS011;34673;52.808;17.856;2023-05-10T03:52:58;7.15;;;4.50;;
48853;SDS011;34673;52.808;17.856;2023-05-10T03:55:27;8.98;;;3.80;;
48853;SDS011;34673;52.808;17.856;2023-05-10T03:57:55;9.32;;;4.03;;
48853;SDS011;34673;52.808;17.856;2023-05-10T04:00:23;8.88;;;3.88;;
48853;SDS011;34673;52.808;17.856;2023-05-10T04:02:53;8.20;;;3.85;;
48853;SDS011;34673;52.808;17.856;2023-05-10T04:05:21;9.13;;;4.43;;
48853;SDS011;34673;52.808;17.856;2023-05-10T04:07:51;7.25;;;4.03;;
48853;SDS011;34673;52.808;17.856;2023-05-10T04:10:18;9.95;;;3.92;;
48853;SDS011;34673;52.808;17.856;2023-05-10T04:12:45;10.48;;;4.40;;
48853;SDS011;34673;52.808;17.856;2023-05-10T04:15:13;7.43;;;4.00;;
48853;SDS011;34673;52.808;17.856;2023-05-10T04:17:40;8.35;;;4.15;;
48853;SDS011;34673;52.808;17.856;2023-05-10T04:20:08;9.73;;;3.83;;
48853;SDS011;34673;52.808;17.856;2023-05-10T04:22:35;7.75;;;4.40;;
48853;SDS011;34673;52.808;17.856;2023-05-10T04:25:03;6.75;;;3.83;;
48853;SDS011;34673;52.808;17.856;2023-05-10T04:27:31;9.82;;;4.28;;
48853;SDS011;34673;52.808;17.856;2023-05-10T04:29:58;8.35;;;3.85;;
48853;SDS011;34673;52.808;17.856;2023-05-10T04:32:26;8.75;;;4.00;;
48853;SDS011;34673;52.808;17.856;2023-05-10T04:34:53;7.93;;;4.20;;
48853;SDS011;34673;52.808;17.856;2023-05-10T04:37:20;10.68;;;4.35;;
48853;SDS011;34673;52.808;17.856;2023-05-10T04:39:49;14.60;;;4.18;;
48853;SDS011;34673;52.808;17.856;2023-05-10T04:42:16;7.57;;;4.00;;
48853;SDS011;34673;52.808;17.856;2023-05-10T04:44:44;9.10;;;3.90;;
48853;SDS011;34673;52.808;17.856;2023-05-10T04:47:11;8.88;;;4.32;;
48853;SDS011;34673;52.808;17.856;2023-05-10T04:49:39;9.23;;;3.83;;
48853;SDS011;34673;52.808;17.856;2023-05-10T04:52:07;11.98;;;3.65;;
48853;SDS011;34673;52.808;17.856;2023-05-10T04:54:34;7.72;;;4.03;;
48853;SDS011;34673;52.808;17.856;2023-05-10T04:57:01;9.10;;;4.00;;
48853;SDS011;34673;52.808;17.856;2023-05-10T04:59:28;8.10;;;4.18;;
48853;SDS011;34673;52.808;17.856;2023-05-10T05:01:56;9.68;;;4.15;;
48853;SDS011;34673;52.808;17.856;2023-05-10T05:04:23;9.02;;;3.97;;
48853;SDS011;34673;52.808;17.856;2023-05-10T05:06:50;7.88;;;4.15;;
48853;SDS011;34673;52.808;17.856;2023-05-10T05:09:19;9.77;;;3.90;;
48853;SDS011;34673;52.808;17.856;2023-05-10T05:11:47;8.43;;;3.92;;
48853;SDS011;34673;52.808;17.856;2023-05-10T05:14:14;8.52;;;4.25;;
48853;SDS011;34673;52.808;17.856;2023-05-10T05:16:41;7.18;;;3.90;;
48853;SDS011;34673;52.808;17.856;2023-05-10T05:19:09;7.30;;;4.05;;
48853;SDS011;34673;52.808;17.856;2023-05-10T05:21:36;8.35;;;3.60;;
48853;SDS011;34673;52.808;17.856;2023-05-10T05:24:04;8.85;;;3.72;;
48853;SDS011;34673;52.808;17.856;2023-05-10T05:26:31;7.88;;;3.33;;
48853;SDS011;34673;52.808;17.856;2023-05-10T05:28:59;6.13;;;4.07;;
48853;SDS011;34673;52.808;17.856;2023-05-10T05:31:26;8.07;;;3.92;;
48853;SDS011;34673;52.808;17.856;2023-05-10T05:33:53;10.93;;;4.10;;
48853;SDS011;34673;52.808;17.856;2023-05-10T05:36:22;9.23;;;3.67;;
48853;SDS011;34673;52.808;17.856;2023-05-10T05:38:49;8.73;;;3.78;;
48853;SDS011;34673;52.808;17.856;2023-05-10T05:41:16;8.43;;;3.58;;
48853;SDS011;34673;52.808;17.856;2023-05-10T05:43:44;10.13;;;4.03;;
48853;SDS011;34673;52.808;17.856;2023-05-10T05:46:12;8.48;;;3.90;;
48853;SDS011;34673;52.808;17.856;2023-05-10T05:48:40;9.95;;;3.78;;
48853;SDS011;34673;52.808;17.856;2023-05-10T05:51:07;10.13;;;4.10;;
48853;SDS011;34673;52.808;17.856;2023-05-10T05:53:34;8.32;;;3.40;;
48853;SDS011;34673;52.808;17.856;2023-05-10T05:56:02;10.05;;;4.03;;
48853;SDS011;34673;52.808;17.856;2023-05-10T05:58:30;7.40;;;3.70;;
48853;SDS011;34673;52.808;17.856;2023-05-10T06:00:57;8.75;;;3.70;;
48853;SDS011;34673;52.808;17.856;2023-05-10T06:03:25;6.40;;;3.40;;
48853;SDS011;34673;52.808;17.856;2023-05-10T06:05:52;10.27;;;3.55;;
48853;SDS011;34673;52.808;17.856;2023-05-10T06:08:20;6.85;;;3.63;;
48853;SDS011;34673;52.808;17.856;2023-05-10T06:10:47;7.22;;;3.40;;
48853;SDS011;34673;52.808;17.856;2023-05-10T06:13:14;9.27;;;3.40;;
48853;SDS011;34673;52.808;17.856;2023-05-10T06:15:42;10.75;;;3.75;;
48853;SDS011;34673;52.808;17.856;2023-05-10T06:18:09;5.90;;;3.60;;
48853;SDS011;34673;52.808;17.856;2023-05-10T06:20:36;6.50;;;3.72;;
48853;SDS011;34673;52.808;17.856;2023-05-10T06:23:04;10.23;;;3.63;;
48853;SDS011;34673;52.808;17.856;2023-05-10T06:25:31;8.10;;;3.55;;
48853;SDS011;34673;52.808;17.856;2023-05-10T06:27:59;8.48;;;3.53;;
48853;SDS011;34673;52.808;17.856;2023-05-10T06:30:26;9.75;;;4.00;;
48853;SDS011;34673;52.808;17.856;2023-05-10T06:32:56;5.82;;;3.35;;
48853;SDS011;34673;52.808;17.856;2023-05-10T06:35:23;7.05;;;3.20;;
48853;SDS011;34673;52.808;17.856;2023-05-10T06:37:51;10.05;;;3.72;;
48853;SDS011;34673;52.808;17.856;2023-05-10T06:40:19;7.60;;;4.07;;
48853;SDS011;34673;52.808;17.856;2023-05-10T06:42:47;6.13;;;3.40;;
48853;SDS011;34673;52.808;17.856;2023-05-10T06:45:15;8.55;;;3.22;;
48853;SDS011;34673;52.808;17.856;2023-05-10T06:47:43;7.82;;;3.60;;
48853;SDS011;34673;52.808;17.856;2023-05-10T06:50:10;8.43;;;3.17;;
48853;SDS011;34673;52.808;17.856;2023-05-10T06:52:38;7.28;;;3.70;;
48853;SDS011;34673;52.808;17.856;2023-05-10T06:55:06;8.88;;;3.60;;
48853;SDS011;34673;52.808;17.856;2023-05-10T06:57:33;8.05;;;3.40;;
48853;SDS011;34673;52.808;17.856;2023-05-10T07:00:01;6.30;;;3.60;;
48853;SDS011;34673;52.808;17.856;2023-05-10T07:02:31;6.95;;;3.25;;
48853;SDS011;34673;52.808;17.856;2023-05-10T07:04:59;8.50;;;3.05;;
48853;SDS011;34673;52.808;17.856;2023-05-10T07:07:29;7.35;;;3.60;;
48853;SDS011;34673;52.808;17.856;2023-05-10T07:09:56;6.00;;;3.20;;
48853;SDS011;34673;52.808;17.856;2023-05-10T07:12:24;5.82;;;3.10;;
48853;SDS011;34673;52.808;17.856;2023-05-10T07:14:52;8.23;;;3.13;;
48853;SDS011;34673;52.808;17.856;2023-05-10T07:17:20;7.10;;;3.30;;
48853;SDS011;34673;52.808;17.856;2023-05-10T07:19:47;6.55;;;3.00;;
48853;SDS011;34673;52.808;17.856;2023-05-10T07:22:15;8.43;;;3.55;;
48853;SDS011;34673;52.808;17.856;2023-05-10T07:24:43;7.75;;;3.67;;
48853;SDS011;34673;52.808;17.856;2023-05-10T07:27:11;6.50;;;3.20;;
48853;SDS011;34673;52.808;17.856;2023-05-10T07:29:39;6.32;;;2.97;;
48853;SDS011;34673;52.808;17.856;2023-05-10T07:32:07;10.55;;;3.85;;
48853;SDS011;34673;52.808;17.856;2023-05-10T07:34:34;8.00;;;3.28;;
48853;SDS011;34673;52.808;17.856;2023-05-10T07:37:02;9.93;;;3.30;;
48853;SDS011;34673;52.808;17.856;2023-05-10T07:39:29;7.00;;;2.95;;
48853;SDS011;34673;52.808;17.856;2023-05-10T07:41:57;6.95;;;3.10;;
48853;SDS011;34673;52.808;17.856;2023-05-10T07:44:24;9.68;;;3.17;;
48853;SDS011;34673;52.808;17.856;2023-05-10T07:46:52;6.03;;;3.30;;
48853;SDS011;34673;52.808;17.856;2023-05-10T07:49:19;6.13;;;3.17;;
48853;SDS011;34673;52.808;17.856;2023-05-10T07:51:47;6.80;;;3.17;;
48853;SDS011;34673;52.808;17.856;2023-05-10T07:54:14;5.85;;;3.10;;
48853;SDS011;34673;52.808;17.856;2023-05-10T07:56:42;7.75;;;2.80;;
48853;SDS011;34673;52.808;17.856;2023-05-10T07:59:16;5.47;;;2.70;;
48853;SDS011;34673;52.808;17.856;2023-05-10T08:01:44;10.52;;;3.05;;
48853;SDS011;34673;52.808;17.856;2023-05-10T08:04:12;6.45;;;3.22;;
48853;SDS011;34673;52.808;17.856;2023-05-10T08:06:39;5.90;;;2.95;;
48853;SDS011;34673;52.808;17.856;2023-05-10T08:09:07;6.65;;;2.88;;
48853;SDS011;34673;52.808;17.856;2023-05-10T08:11:35;7.85;;;3.00;;
48853;SDS011;34673;52.808;17.856;2023-05-10T08:14:02;8.18;;;2.90;;
48853;SDS011;34673;52.808;17.856;2023-05-10T08:16:30;6.72;;;3.28;;
48853;SDS011;34673;52.808;17.856;2023-05-10T08:18:57;8.55;;;3.33;;
48853;SDS011;34673;52.808;17.856;2023-05-10T08:21:25;7.72;;;2.75;;
48853;SDS011;34673;52.808;17.856;2023-05-10T08:23:53;5.45;;;2.80;;
48853;SDS011;34673;52.808;17.856;2023-05-10T08:26:20;7.38;;;2.58;;
48853;SDS011;34673;52.808;17.856;2023-05-10T08:28:48;6.32;;;2.80;;
48853;SDS011;34673;52.808;17.856;2023-05-10T08:31:15;5.38;;;2.42;;
48853;SDS011;34673;52.808;17.856;2023-05-10T08:33:43;5.47;;;2.70;;
48853;SDS011;34673;52.808;17.856;2023-05-10T08:36:10;5.80;;;2.75;;
48853;SDS011;34673;52.808;17.856;2023-05-10T08:38:38;7.50;;;3.20;;
48853;SDS011;34673;52.808;17.856;2023-05-10T08:41:05;6.82;;;2.45;;
48853;SDS011;34673;52.808;17.856;2023-05-10T08:43:33;6.75;;;2.85;;
48853;SDS011;34673;52.808;17.856;2023-05-10T08:46:03;7.47;;;2.90;;
48853;SDS011;34673;52.808;17.856;2023-05-10T08:48:32;6.50;;;2.80;;
48853;SDS011;34673;52.808;17.856;2023-05-10T08:51:02;6.13;;;2.88;;
48853;SDS011;34673;52.808;17.856;2023-05-10T08:53:30;10.77;;;3.20;;
48853;SDS011;34673;52.808;17.856;2023-05-10T08:56:02;5.15;;;2.60;;
48853;SDS011;34673;52.808;17.856;2023-05-10T08:58:30;7.13;;;2.78;;
48853;SDS011;34673;52.808;17.856;2023-05-10T09:00:59;5.00;;;2.80;;
48853;SDS011;34673;52.808;17.856;2023-05-10T09:03:27;5.43;;;2.53;;
48853;SDS011;34673;52.808;17.856;2023-05-10T09:05:55;5.75;;;2.90;;
48853;SDS011;34673;52.808;17.856;2023-05-10T09:08:23;4.43;;;2.40;;
48853;SDS011;34673;52.808;17.856;2023-05-10T09:10:56;6.97;;;2.58;;
48853;SDS011;34673;52.808;17.856;2023-05-10T09:13:24;6.15;;;2.67;;
48853;SDS011;34673;52.808;17.856;2023-05-10T09:15:52;6.15;;;2.40;;
48853;SDS011;34673;52.808;17.856;2023-05-10T09:18:20;4.63;;;2.03;;
48853;SDS011;34673;52.808;17.856;2023-05-10T09:20:48;5.55;;;2.70;;
48853;SDS011;34673;52.808;17.856;2023-05-10T09:23:16;8.27;;;2.50;;
48853;SDS011;34673;52.808;17.856;2023-05-10T09:25:43;4.68;;;2.38;;
48853;SDS011;34673;52.808;17.856;2023-05-10T09:28:10;7.55;;;2.45;;
48853;SDS011;34673;52.808;17.856;2023-05-10T09:30:38;4.95;;;2.55;;
48853;SDS011;34673;52.808;17.856;2023-05-10T09:33:06;5.13;;;2.50;;
48853;SDS011;34673;52.808;17.856;2023-05-10T09:35:34;4.90;;;2.40;;
48853;SDS011;34673;52.808;17.856;2023-05-10T09:38:03;7.32;;;2.63;;
48853;SDS011;34673;52.808;17.856;2023-05-10T09:40:31;7.00;;;2.60;;
48853;SDS011;34673;52.808;17.856;2023-05-10T09:43:08;5.50;;;2.55;;
48853;SDS011;34673;52.808;17.856;2023-05-10T09:45:35;5.32;;;2.30;;
48853;SDS011;34673;52.808;17.856;2023-05-10T09:48:05;4.32;;;2.53;;
48853;SDS011;34673;52.808;17.856;2023-05-10T09:50:33;7.60;;;2.50;;
48853;SDS011;34673;52.808;17.856;2023-05-10T09:53:02;8.02;;;2.33;;
48853;SDS011;34673;52.808;17.856;2023-05-10T09:55:42;4.50;;;2.33;;
48853;SDS011;34673;52.808;17.856;2023-05-10T09:58:13;3.72;;;2.10;;
48853;SDS011;34673;52.808;17.856;2023-05-10T10:03:15;10.70;;;2.55;;
48853;SDS011;34673;52.808;17.856;2023-05-10T10:05:44;7.45;;;2.50;;
48853;SDS011;34673;52.808;17.856;2023-05-10T10:08:13;4.25;;;2.30;;
48853;SDS011;34673;52.808;17.856;2023-05-10T10:10:41;4.95;;;2.13;;
48853;SDS011;34673;52.808;17.856;2023-05-10T10:13:12;3.63;;;2.08;;
48853;SDS011;34673;52.808;17.856;2023-05-10T10:15:40;5.20;;;2.40;;
48853;SDS011;34673;52.808;17.856;2023-05-10T10:18:12;6.38;;;2.40;;
48853;SDS011;34673;52.808;17.856;2023-05-10T10:20:42;8.90;;;2.80;;
48853;SDS011;34673;52.808;17.856;2023-05-10T10:23:09;9.38;;;2.72;;
48853;SDS011;34673;52.808;17.856;2023-05-10T10:25:37;3.47;;;2.20;;
48853;SDS011;34673;52.808;17.856;2023-05-10T10:28:24;6.28;;;2.33;;
48853;SDS011;34673;52.808;17.856;2023-05-10T10:31:11;5.05;;;2.38;;
48853;SDS011;34673;52.808;17.856;2023-05-10T10:34:03;7.70;;;2.35;;
48853;SDS011;34673;52.808;17.856;2023-05-10T10:39:10;5.03;;;2.58;;
48853;SDS011;34673;52.808;17.856;2023-05-10T10:47:02;6.75;;;2.70;;
48853;SDS011;34673;52.808;17.856;2023-05-10T10:52:15;9.25;;;2.92;;
48853;SDS011;34673;52.808;17.856;2023-05-10T10:54:51;8.02;;;2.45;;
48853;SDS011;34673;52.808;17.856;2023-05-10T10:57:19;5.55;;;2.30;;
48853;SDS011;34673;52.808;17.856;2023-05-10T10:59:50;5.78;;;2.78;;
48853;SDS011;34673;52.808;17.856;2023-05-10T11:11:24;7.78;;;2.80;;
48853;SDS011;34673;52.808;17.856;2023-05-10T11:13:40;6.78;;;2.50;;
48853;SDS011;34673;52.808;17.856;2023-05-10T11:21:32;11.50;;;2.53;;
48853;SDS011;34673;52.808;17.856;2023-05-10T11:24:00;7.72;;;2.85;;
48853;SDS011;34673;52.808;17.856;2023-05-10T11:26:35;9.88;;;2.78;;
48853;SDS011;34673;52.808;17.856;2023-05-10T11:29:04;7.40;;;2.38;;
48853;SDS011;34673;52.808;17.856;2023-05-10T11:31:31;6.18;;;2.40;;
48853;SDS011;34673;52.808;17.856;2023-05-10T11:34:00;8.77;;;2.95;;
48853;SDS011;34673;52.808;17.856;2023-05-10T11:36:29;5.72;;;2.40;;
48853;SDS011;34673;52.808;17.856;2023-05-10T11:39:00;5.32;;;2.50;;
48853;SDS011;34673;52.808;17.856;2023-05-10T11:41:28;7.90;;;2.70;;
48853;SDS011;34673;52.808;17.856;2023-05-10T11:43:56;4.18;;;2.17;;
48853;SDS011;34673;52.808;17.856;2023-05-10T11:46:25;7.28;;;2.78;;
48853;SDS011;34673;52.808;17.856;2023-05-10T11:48:55;6.57;;;2.80;;
48853;SDS011;34673;52.808;17.856;2023-05-10T11:51:28;5.93;;;2.67;;
48853;SDS011;34673;52.808;17.856;2023-05-10T11:53:56;7.88;;;3.25;;
48853;SDS011;34673;52.808;17.856;2023-05-10T11:56:24;8.23;;;2.72;;
48853;SDS011;34673;52.808;17.856;2023-05-10T11:58:54;6.20;;;2.60;;
48853;SDS011;34673;52.808;17.856;2023-05-10T12:01:24;7.45;;;2.88;;
48853;SDS011;34673;52.808;17.856;2023-05-10T12:03:53;10.23;;;2.58;;
48853;SDS011;34673;52.808;17.856;2023-05-10T12:06:22;8.45;;;2.55;;
48853;SDS011;34673;52.808;17.856;2023-05-10T12:08:49;8.48;;;2.42;;
48853;SDS011;34673;52.808;17.856;2023-05-10T12:11:23;5.05;;;2.60;;
48853;SDS011;34673;52.808;17.856;2023-05-10T12:13:52;6.43;;;2.90;;
48853;SDS011;34673;52.808;17.856;2023-05-10T12:16:20;6.22;;;2.97;;
48853;SDS011;34673;52.808;17.856;2023-05-10T12:18:49;9.50;;;2.88;;
48853;SDS011;34673;52.808;17.856;2023-05-10T12:21:18;6.68;;;3.08;;
48853;SDS011;34673;52.808;17.856;2023-05-10T12:23:47;4.97;;;2.70;;
48853;SDS011;34673;52.808;17.856;2023-05-10T12:26:16;4.05;;;2.42;;
48853;SDS011;34673;52.808;17.856;2023-05-10T12:28:44;6.53;;;2.67;;
48853;SDS011;34673;52.808;17.856;2023-05-10T12:31:12;6.80;;;2.67;;
48853;SDS011;34673;52.808;17.856;2023-05-10T12:33:43;8.63;;;2.85;;
48853;SDS011;34673;52.808;17.856;2023-05-10T12:36:12;9.40;;;2.47;;
48853;SDS011;34673;52.808;17.856;2023-05-10T12:38:41;8.63;;;2.80;;
48853;SDS011;34673;52.808;17.856;2023-05-10T12:41:11;7.40;;;2.33;;
48853;SDS011;34673;52.808;17.856;2023-05-10T12:43:45;7.28;;;2.75;;
48853;SDS011;34673;52.808;17.856;2023-05-10T12:46:16;8.05;;;2.50;;
48853;SDS011;34673;52.808;17.856;2023-05-10T12:48:45;9.50;;;2.97;;
48853;SDS011;34673;52.808;17.856;2023-05-10T12:51:29;9.02;;;2.78;;
48853;SDS011;34673;52.808;17.856;2023-05-10T12:53:57;7.60;;;2.55;;
48853;SDS011;34673;52.808;17.856;2023-05-10T12:56:24;9.30;;;2.92;;
48853;SDS011;34673;52.808;17.856;2023-05-10T12:58:52;7.57;;;2.75;;
48853;SDS011;34673;52.808;17.856;2023-05-10T13:01:19;4.88;;;2.58;;
48853;SDS011;34673;52.808;17.856;2023-05-10T13:03:47;9.57;;;3.20;;
48853;SDS011;34673;52.808;17.856;2023-05-10T13:06:14;7.65;;;2.63;;
48853;SDS011;34673;52.808;17.856;2023-05-10T13:08:42;5.97;;;2.45;;
48853;SDS011;34673;52.808;17.856;2023-05-10T13:11:09;6.55;;;2.75;;
48853;SDS011;34673;52.808;17.856;2023-05-10T13:13:37;7.72;;;2.47;;
48853;SDS011;34673;52.808;17.856;2023-05-10T13:16:04;8.40;;;2.40;;
48853;SDS011;34673;52.808;17.856;2023-05-10T13:18:32;4.78;;;2.20;;
48853;SDS011;34673;52.808;17.856;2023-05-10T13:21:00;9.05;;;2.10;;
48853;SDS011;34673;52.808;17.856;2023-05-10T13:23:27;7.05;;;2.50;;
48853;SDS011;34673;52.808;17.856;2023-05-10T13:25:54;6.07;;;2.30;;
48853;SDS011;34673;52.808;17.856;2023-05-10T13:28:22;10.82;;;2.08;;
48853;SDS011;34673;52.808;17.856;2023-05-10T13:30:49;5.88;;;2.40;;
48853;SDS011;34673;52.808;17.856;2023-05-10T13:33:17;12.52;;;2.60;;
48853;SDS011;34673;52.808;17.856;2023-05-10T13:35:44;4.65;;;1.98;;
48853;SDS011;34673;52.808;17.856;2023-05-10T13:38:12;5.07;;;1.90;;
48853;SDS011;34673;52.808;17.856;2023-05-10T13:40:40;6.47;;;2.50;;
48853;SDS011;34673;52.808;17.856;2023-05-10T13:43:07;8.05;;;2.30;;
48853;SDS011;34673;52.808;17.856;2023-05-10T13:45:35;7.53;;;2.33;;
48853;SDS011;34673;52.808;17.856;2023-05-10T13:48:02;5.80;;;2.08;;
48853;SDS011;34673;52.808;17.856;2023-05-10T13:50:30;5.65;;;2.42;;
48853;SDS011;34673;52.808;17.856;2023-05-10T13:52:58;4.63;;;2.00;;
48853;SDS011;34673;52.808;17.856;2023-05-10T13:55:25;4.40;;;2.17;;
48853;SDS011;34673;52.808;17.856;2023-05-10T13:58:10;3.90;;;1.95;;
48853;SDS011;34673;52.808;17.856;2023-05-10T14:00:38;4.95;;;2.05;;
48853;SDS011;34673;52.808;17.856;2023-05-10T14:03:06;5.68;;;2.03;;
48853;SDS011;34673;52.808;17.856;2023-05-10T14:05:36;7.65;;;2.25;;
48853;SDS011;34673;52.808;17.856;2023-05-10T14:08:04;3.85;;;2.13;;
48853;SDS011;34673;52.808;17.856;2023-05-10T14:10:31;4.75;;;2.22;;
48853;SDS011;34673;52.808;17.856;2023-05-10T14:12:59;7.38;;;2.30;;
48853;SDS011;34673;52.808;17.856;2023-05-10T14:15:27;7.85;;;1.98;;
48853;SDS011;34673;52.808;17.856;2023-05-10T14:17:55;5.20;;;2.17;;
48853;SDS011;34673;52.808;17.856;2023-05-10T14:20:22;5.72;;;2.30;;
48853;SDS011;34673;52.808;17.856;2023-05-10T14:22:50;6.18;;;2.10;;
48853;SDS011;34673;52.808;17.856;2023-05-10T14:25:17;6.68;;;2.13;;
48853;SDS011;34673;52.808;17.856;2023-05-10T14:27:46;6.18;;;1.92;;
48853;SDS011;34673;52.808;17.856;2023-05-10T14:30:14;5.60;;;2.28;;
48853;SDS011;34673;52.808;17.856;2023-05-10T14:32:41;5.10;;;2.30;;
48853;SDS011;34673;52.808;17.856;2023-05-10T14:35:09;6.77;;;2.10;;
48853;SDS011;34673;52.808;17.856;2023-05-10T14:37:39;10.13;;;2.73;;
48853;SDS011;34673;52.808;17.856;2023-05-10T14:40:06;6.55;;;2.28;;
48853;SDS011;34673;52.808;17.856;2023-05-10T14:42:34;5.72;;;2.03;;
48853;SDS011;34673;52.808;17.856;2023-05-10T14:45:02;10.55;;;2.40;;
48853;SDS011;34673;52.808;17.856;2023-05-10T14:47:30;7.18;;;2.30;;
48853;SDS011;34673;52.808;17.856;2023-05-10T14:49:58;7.00;;;2.58;;
48853;SDS011;34673;52.808;17.856;2023-05-10T14:52:25;4.50;;;1.90;;
48853;SDS011;34673;52.808;17.856;2023-05-10T14:55:10;5.68;;;2.10;;
48853;SDS011;34673;52.808;17.856;2023-05-10T14:57:38;7.85;;;2.35;;
48853;SDS011;34673;52.808;17.856;2023-05-10T15:00:05;10.15;;;2.28;;
48853;SDS011;34673;52.808;17.856;2023-05-10T15:02:34;9.07;;;2.42;;
48853;SDS011;34673;52.808;17.856;2023-05-10T15:05:02;7.72;;;1.90;;
48853;SDS011;34673;52.808;17.856;2023-05-10T15:07:30;7.18;;;2.17;;
48853;SDS011;34673;52.808;17.856;2023-05-10T15:09:58;5.30;;;2.10;;
48853;SDS011;34673;52.808;17.856;2023-05-10T15:12:26;5.35;;;2.00;;
48853;SDS011;34673;52.808;17.856;2023-05-10T15:14:54;3.85;;;2.28;;
48853;SDS011;34673;52.808;17.856;2023-05-10T15:17:21;4.43;;;2.05;;
48853;SDS011;34673;52.808;17.856;2023-05-10T15:19:49;5.03;;;1.98;;
48853;SDS011;34673;52.808;17.856;2023-05-10T15:22:17;7.43;;;2.35;;
48853;SDS011;34673;52.808;17.856;2023-05-10T15:24:44;3.33;;;2.00;;
48853;SDS011;34673;52.808;17.856;2023-05-10T15:27:12;4.95;;;2.05;;
48853;SDS011;34673;52.808;17.856;2023-05-10T15:29:39;6.10;;;2.20;;